Share

Pilar Observatorio, Argentina

Ferreyra (ICORDOBA28) Elev 1325 ft | 31.45 °S, 64.12 °W | Change Station

Current weather conditions updated 1 minute ago

Clear
Clear
68.4 °F
Feels Like 68.4 °F
N
5.0
Wind Variable Wind from North
Gusts 5.0 mph
Sunrise 7:38 AM
Sunset 6:51 PM
Moon Waning Gibbous

Today is forecast to be Much Warmer than yesterday.

Pressure 30.01 in
Visibility -9999.0 miles
Clouds
Dew Point 42 °F
Humidity 39%
Rainfall 0.00 in
Snow Depth Not available.
UV Not available.
Pollen Not available.
Air Quality Not available.
Flu Activity Not available.
METAR SACO 181600Z 36012KT CAVOK 20/03 Q1016

More Conditions Fewer Conditions

Pressure 30.01 in
Visibility -9999.0 miles
Clouds
Dew Point 42 °F
Humidity 39%
Rainfall 0.00 in
Snow Depth Not available.
UV Not available.
Pollen Not available.
Air Quality Not available.
Flu Activity Not available.
METAR SACO 181600Z 36012KT CAVOK 20/03 Q1016

More Conditions Fewer Conditions

10-Day Weather Forecast

Almanac

Astronomy

Apr. 18, 2014 Rise Set
Actual Time 7:38 AM ART 6:51 PM ART
Civil Twilight 7:13 AM ART 7:15 PM ART
Nautical Twilight 6:44 AM ART 7:44 PM ART
Astronomical Twilight 6:16 AM ART 8:12 PM ART
Moon 9:38 PM ART 10:48 AM ART
Length of Visible Light 12h 02m
Length of Day
11h 13m
Tomorrow will be 1m 46s shorter.
Waning Gibbous, 87% of the Moon is Illuminated
Today
Waning Gibbous
Apr 22
Last Quarter
Apr 29
New
May 6
First Quarter
May 14
Full

Today's Extremes

Country Highs Country Lows

Community

  • What's for Lunch?
    What's for Lunch?
  • SUNRISE THROUGH THE TREES.
    SUNRISE THROUGH THE TREES.
  • Dog Wood Blossoms
    Dog Wood Blossoms
  • Morning Light
    Morning Light
  • New Day
    New Day

WunderPhotos

Upload Photos

1,702,417 photos uploaded!

Nearby

Snow Depth

Not available.

Coastal Water Temperatures

Place Temperature
No Stations Reporting

Earthquake Activity

City Distance Mag. Time & Date
No recent earthquake activity has been reported nearby.
Minimum magnitude displayed is 2.5.

Nearby Weather Stations

Station Location Temp. Dew Point Humidity Wind Precip. Elev Updated Type
Ferreyra, Cordoba 68.4 °F 42 °F 39% North  at  5.0 mph 0.00 in / hr 1325 ft 2:00 PM ART Normal

Show More Stations Show Fewer Stations

What do you think?

We're not finished. Please let us know what you like, what you don't like, and what you are still missing.